Time;durP1;ratioP1;P1;durP2;ratioP2;P2;SDS_P1;SDS_P2;PMS_P1;PMS_P2;Temp;Humidity;BMP_temperature;BMP_pressure;BME280_temperature;BME280_humidity;BME280_pressure;Samples;Min_cycle;Max_cycle;Signal;HPM_P1;HPM_P2
2022/12/17 13:06:55;;;;;;;87.93;59.03;;;;;;;;;;5034080;28;20424;-82
2022/12/17 13:09:21;;;;;;;89.07;59.40;;;;;;;;;;5016229;28;20429;-82
2022/12/17 13:11:47;;;;;;;90.47;59.30;;;;;;;;;;5016442;28;20405;-80
2022/12/17 13:14:15;;;;;;;87.22;58.90;;;;;;;;;;5014107;28;20464;-80
2022/12/17 13:16:44;;;;;;;85.95;58.47;;;;;;;;;;5012282;28;20458;-79
2022/12/17 13:19:32;;;;;;;84.90;57.17;;;;;;;;;;5015938;28;20455;-80
2022/12/17 13:22:14;;;;;;;86.18;58.35;;;;;;;;;;5014265;28;20441;-80
2022/12/17 13:24:40;;;;;;;88.32;59.10;;;;;;;;;;5014122;28;20415;-79
2022/12/17 13:27:25;;;;;;;84.45;56.90;;;;;;;;;;4996151;28;20425;-80
2022/12/17 13:29:51;;;;;;;86.13;57.63;;;;;;;;;;5023722;28;20517;-79
2022/12/17 13:32:27;;;;;;;85.35;57.00;;;;;;;;;;5017290;28;20454;-78
2022/12/17 13:35:02;;;;;;;87.68;57.60;;;;;;;;;;5042199;28;20442;-79
2022/12/17 13:37:28;;;;;;;87.03;58.67;;;;;;;;;;5013366;28;20452;-79
2022/12/17 13:39:54;;;;;;;87.45;57.75;;;;;;;;;;5014057;28;20441;-79
2022/12/17 13:42:23;;;;;;;88.43;59.03;;;;;;;;;;5014523;28;20457;-79
2022/12/17 13:44:49;;;;;;;86.55;58.60;;;;;;;;;;5032098;28;20449;-79
2022/12/17 13:47:23;;;;;;;85.90;58.88;;;;;;;;;;4999399;28;20417;-79
2022/12/17 13:49:50;;;;;;;91.55;61.13;;;;;;;;;;5015173;28;25117;-79
2022/12/17 13:52:18;;;;;;;87.18;58.58;;;;;;;;;;4982421;28;20455;-79
2022/12/17 13:54:44;;;;;;;86.35;58.50;;;;;;;;;;5014231;28;20429;-79
2022/12/17 13:57:14;;;;;;;89.15;59.35;;;;;;;;;;5014344;28;20464;-79
2022/12/17 13:59:40;;;;;;;90.83;59.80;;;;;;;;;;5024913;28;20511;-79
2022/12/17 14:02:22;;;;;;;87.73;57.93;;;;;;;;;;4998685;28;20417;-81
2022/12/17 14:04:51;;;;;;;89.32;59.63;;;;;;;;;;5035908;28;20421;-82
2022/12/17 14:07:17;;;;;;;94.53;63.15;;;;;;;;;;5016025;28;20461;-82
2022/12/17 14:09:43;;;;;;;95.50;62.10;;;;;;;;;;5024425;28;20461;-81
2022/12/17 14:12:24;;;;;;;101.15;63.53;;;;;;;;;;5015176;28;20418;-81
2022/12/17 14:14:55;;;;;;;96.32;63.72;;;;;;;;;;5015798;28;20524;-82
2022/12/17 14:17:24;;;;;;;95.72;60.13;;;;;;;;;;5020073;28;20461;-81
2022/12/17 14:19:53;;;;;;;90.47;59.50;;;;;;;;;;5019915;28;20494;-81
2022/12/17 14:22:30;;;;;;;90.20;59.63;;;;;;;;;;5019514;28;20401;-81
2022/12/17 14:24:56;;;;;;;88.45;58.83;;;;;;;;;;5019401;28;20428;-81
2022/12/17 14:27:24;;;;;;;93.97;62.22;;;;;;;;;;5019611;28;20410;-82
2022/12/17 14:29:50;;;;;;;90.47;58.50;;;;;;;;;;5007257;28;20419;-81
2022/12/17 14:32:24;;;;;;;93.30;59.07;;;;;;;;;;4991399;28;20464;-81
2022/12/17 14:34:50;;;;;;;95.80;60.47;;;;;;;;;;5016213;28;20451;-79
2022/12/17 14:37:17;;;;;;;98.63;61.35;;;;;;;;;;5001689;28;20443;-80
2022/12/17 14:39:44;;;;;;;92.57;58.10;;;;;;;;;;5018717;28;20405;-80
2022/12/17 14:42:24;;;;;;;95.32;61.40;;;;;;;;;;5013453;28;20500;-79
2022/12/17 14:44:52;;;;;;;97.13;60.50;;;;;;;;;;5017910;28;20481;-80
2022/12/17 14:47:20;;;;;;;95.57;60.72;;;;;;;;;;5036235;28;20395;-80
2022/12/17 14:49:51;;;;;;;96.65;60.58;;;;;;;;;;5018544;28;20432;-80
2022/12/17 14:52:37;;;;;;;93.93;59.80;;;;;;;;;;5035344;28;20445;-79
2022/12/17 14:55:22;;;;;;;95.28;59.40;;;;;;;;;;5015676;28;20465;-79
2022/12/17 14:57:49;;;;;;;98.35;61.78;;;;;;;;;;5018127;28;20433;-79
2022/12/17 15:00:15;;;;;;;91.65;57.53;;;;;;;;;;5016815;28;20445;-79
2022/12/17 15:02:42;;;;;;;85.32;56.83;;;;;;;;;;5018815;28;20435;-79
2022/12/17 15:05:12;;;;;;;90.63;59.15;;;;;;;;;;5015363;28;20520;-79
2022/12/17 15:07:38;;;;;;;84.65;56.28;;;;;;;;;;5014476;28;20568;-79
2022/12/17 15:10:16;;;;;;;87.70;57.92;;;;;;;;;;4991610;28;20419;-79
2022/12/17 15:12:42;;;;;;;87.35;58.60;;;;;;;;;;5034327;28;20487;-79
2022/12/17 15:15:12;;;;;;;87.90;59.15;;;;;;;;;;5036925;28;20476;-79
2022/12/17 15:17:38;;;;;;;84.80;57.78;;;;;;;;;;4997927;28;20448;-79
2022/12/17 15:20:04;;;;;;;84.40;58.65;;;;;;;;;;5015197;28;20453;-79
2022/12/17 15:22:31;;;;;;;84.45;57.15;;;;;;;;;;5017797;28;20405;-79
2022/12/17 15:24:57;;;;;;;91.70;61.45;;;;;;;;;;5001857;28;20503;-81
2022/12/17 15:27:23;;;;;;;81.78;58.58;;;;;;;;;;5001805;28;20417;-81
2022/12/17 15:29:49;;;;;;;80.82;57.42;;;;;;;;;;5002486;28;20420;-81
2022/12/17 15:32:19;;;;;;;79.97;56.50;;;;;;;;;;5002034;28;20434;-81
2022/12/17 15:34:45;;;;;;;82.00;56.70;;;;;;;;;;5031222;28;20481;-81
2022/12/17 15:37:11;;;;;;;81.05;57.78;;;;;;;;;;5018680;28;20413;-81
2022/12/17 15:39:37;;;;;;;80.78;56.75;;;;;;;;;;5018272;28;20405;-81
2022/12/17 15:44:48;;;;;;;78.18;55.63;;;;;;;;;;5034452;28;20452;-84
2022/12/17 15:47:14;;;;;;;81.20;56.00;;;;;;;;;;5017647;28;20409;-84
2022/12/17 15:49:40;;;;;;;84.43;59.30;;;;;;;;;;5017313;28;20413;-84
2022/12/17 15:52:06;;;;;;;86.55;58.25;;;;;;;;;;5017455;28;20504;-84
2022/12/17 15:54:32;;;;;;;84.30;58.57;;;;;;;;;;5001263;28;20472;-84
2022/12/17 15:56:58;;;;;;;84.68;58.25;;;;;;;;;;5017541;28;20433;-84
2022/12/17 15:59:24;;;;;;;86.65;59.45;;;;;;;;;;5017269;28;20479;-79
2022/12/17 16:01:50;;;;;;;82.15;56.50;;;;;;;;;;5033655;28;20507;-79
2022/12/17 16:04:16;;;;;;;81.17;55.90;;;;;;;;;;5016618;28;20479;-79
2022/12/17 16:06:42;;;;;;;82.57;55.47;;;;;;;;;;4999025;28;20434;-79
2022/12/17 16:09:08;;;;;;;81.63;54.88;;;;;;;;;;5007486;28;20427;-79
2022/12/17 16:11:34;;;;;;;81.30;54.53;;;;;;;;;;4999283;28;20429;-78
2022/12/17 16:14:00;;;;;;;81.97;55.78;;;;;;;;;;5017279;28;20437;-79
2022/12/17 16:16:26;;;;;;;82.97;55.72;;;;;;;;;;4988527;23;20468;-81
2022/12/17 16:18:52;;;;;;;83.28;56.85;;;;;;;;;;4955285;28;20448;-81
2022/12/17 16:21:18;;;;;;;91.93;60.28;;;;;;;;;;4974425;28;20422;-81
2022/12/17 16:23:44;;;;;;;89.13;61.77;;;;;;;;;;4974096;28;20789;-81
2022/12/17 16:26:10;;;;;;;88.72;57.20;;;;;;;;;;4960365;28;20442;-81
2022/12/17 16:28:37;;;;;;;88.15;58.92;;;;;;;;;;4974201;28;20418;-81
2022/12/17 16:31:04;;;;;;;84.07;56.70;;;;;;;;;;4973268;28;20429;-81
2022/12/17 16:33:34;;;;;;;81.93;55.42;;;;;;;;;;4973870;28;20442;-81
2022/12/17 16:36:00;;;;;;;78.93;54.45;;;;;;;;;;4971763;28;20432;-81
2022/12/17 16:38:26;;;;;;;79.88;54.33;;;;;;;;;;4973852;28;20456;-81
2022/12/17 16:40:56;;;;;;;74.93;50.42;;;;;;;;;;4958382;28;20435;-81
2022/12/17 16:43:22;;;;;;;75.63;51.10;;;;;;;;;;4972962;28;20414;-81
2022/12/17 16:45:49;;;;;;;77.63;52.65;;;;;;;;;;4958353;28;20418;-81
2022/12/17 16:48:16;;;;;;;78.93;52.42;;;;;;;;;;4974117;28;20410;-81
2022/12/17 16:50:42;;;;;;;90.40;55.58;;;;;;;;;;4975205;28;20430;-86
2022/12/17 16:53:08;;;;;;;82.90;53.97;;;;;;;;;;4954589;29;20458;-86
2022/12/17 16:55:39;;;;;;;81.65;52.78;;;;;;;;;;4956432;28;20533;-86
2022/12/17 16:58:05;;;;;;;80.63;52.22;;;;;;;;;;4973645;28;20516;-86
2022/12/17 17:00:31;;;;;;;74.93;50.53;;;;;;;;;;4957400;28;20467;-86
2022/12/17 17:02:57;;;;;;;73.65;49.80;;;;;;;;;;4957840;28;20449;-86
2022/12/17 17:05:23;;;;;;;74.20;50.07;;;;;;;;;;4957805;28;20446;-82
2022/12/17 17:07:50;;;;;;;80.30;52.35;;;;;;;;;;4957369;28;20517;-82
2022/12/17 17:10:16;;;;;;;75.05;51.28;;;;;;;;;;4957741;28;20424;-82
2022/12/17 17:12:42;;;;;;;78.23;51.67;;;;;;;;;;4973789;28;20414;-82
2022/12/17 17:15:09;;;;;;;80.72;51.88;;;;;;;;;;4959566;28;20434;-82
2022/12/17 17:17:35;;;;;;;79.07;50.72;;;;;;;;;;5003467;28;20438;-82
2022/12/17 17:20:01;;;;;;;85.32;52.97;;;;;;;;;;4973850;28;20423;-82
2022/12/17 17:22:27;;;;;;;77.90;51.47;;;;;;;;;;4973515;28;20517;-81
2022/12/17 17:24:53;;;;;;;81.97;52.17;;;;;;;;;;4990124;28;20422;-81
2022/12/17 17:27:19;;;;;;;76.43;50.83;;;;;;;;;;4977023;28;20482;-81
2022/12/17 17:29:45;;;;;;;67.87;39.87;;;;;;;;;;4961778;28;20182;-81
2022/12/17 17:32:11;;;;;;;77.70;47.08;;;;;;;;;;4961771;28;20427;-81
2022/12/17 17:34:37;;;;;;;76.30;43.90;;;;;;;;;;4978151;28;20467;-81
2022/12/17 17:37:03;;;;;;;81.00;51.42;;;;;;;;;;4962359;28;20426;-82
2022/12/17 17:39:31;;;;;;;78.15;50.85;;;;;;;;;;4976777;28;20432;-81
2022/12/17 17:41:58;;;;;;;67.93;45.95;;;;;;;;;;4960984;28;20491;-86
2022/12/17 17:44:24;;;;;;;67.75;46.55;;;;;;;;;;4976248;28;20463;-86
2022/12/17 17:46:50;;;;;;;69.68;46.47;;;;;;;;;;4961369;28;20433;-85
2022/12/17 17:49:16;;;;;;;70.83;47.10;;;;;;;;;;4971537;28;20532;-86
2022/12/17 17:51:43;;;;;;;73.60;49.45;;;;;;;;;;4988937;28;20463;-86
2022/12/17 17:54:09;;;;;;;68.57;47.25;;;;;;;;;;4975102;28;20428;-86
2022/12/17 17:56:37;;;;;;;71.75;48.28;;;;;;;;;;4983668;28;20411;-82
2022/12/17 17:59:04;;;;;;;93.45;63.60;;;;;;;;;;5008430;28;20416;-81
2022/12/17 18:01:31;;;;;;;83.35;54.50;;;;;;;;;;4989880;28;20412;-81
2022/12/17 18:03:58;;;;;;;78.90;49.92;;;;;;;;;;4973842;28;20503;-81
2022/12/17 18:06:25;;;;;;;83.20;53.63;;;;;;;;;;4981972;28;20467;-81
2022/12/17 18:08:51;;;;;;;86.22;55.22;;;;;;;;;;4988939;28;20426;-81
2022/12/17 18:11:18;;;;;;;83.93;53.30;;;;;;;;;;4981352;28;20456;-81
2022/12/17 18:13:54;;;;;;;88.35;55.00;;;;;;;;;;4975807;28;20448;-80
2022/12/17 18:16:40;;;;;;;81.20;52.40;;;;;;;;;;4960601;28;20519;-80
2022/12/17 18:19:11;;;;;;;84.43;53.17;;;;;;;;;;4994745;28;20425;-81
2022/12/17 18:21:37;;;;;;;79.95;51.22;;;;;;;;;;4993309;28;20466;-81
2022/12/17 18:24:14;;;;;;;80.90;50.80;;;;;;;;;;4974351;28;20425;-81
2022/12/17 18:26:41;;;;;;;81.93;52.55;;;;;;;;;;4976149;28;20441;-81
2022/12/17 18:29:27;;;;;;;86.65;52.83;;;;;;;;;;4961807;28;20433;-81
2022/12/17 18:31:53;;;;;;;87.90;53.35;;;;;;;;;;4973616;28;20438;-80
2022/12/17 18:34:21;;;;;;;86.63;53.65;;;;;;;;;;4957772;28;20471;-81
2022/12/17 18:36:48;;;;;;;88.35;50.40;;;;;;;;;;4972957;28;20430;-80
2022/12/17 18:39:15;;;;;;;83.13;49.92;;;;;;;;;;4988910;28;20422;-81
2022/12/17 18:44:28;;;;;;;83.77;51.07;;;;;;;;;;4988104;28;20444;-80
2022/12/17 18:46:54;;;;;;;85.88;52.08;;;;;;;;;;4956632;28;20414;-81
2022/12/17 18:49:20;;;;;;;84.80;51.58;;;;;;;;;;4972668;28;20406;-81
2022/12/17 18:51:47;;;;;;;85.63;51.00;;;;;;;;;;4956927;28;20497;-80
2022/12/17 18:54:18;;;;;;;77.82;42.45;;;;;;;;;;4973048;28;20442;-81
2022/12/17 18:56:44;;;;;;;86.43;51.63;;;;;;;;;;4972494;28;20410;-81
2022/12/17 18:59:14;;;;;;;81.25;50.75;;;;;;;;;;4956474;28;20429;-81
2022/12/17 19:01:40;;;;;;;82.70;52.00;;;;;;;;;;4972687;28;20524;-82
2022/12/17 19:04:08;;;;;;;82.50;50.13;;;;;;;;;;4989447;28;20442;-83
2022/12/17 19:06:35;;;;;;;83.38;50.55;;;;;;;;;;4992323;28;20441;-82
2022/12/17 19:09:02;;;;;;;87.10;49.80;;;;;;;;;;4992237;28;20414;-83
2022/12/17 19:11:31;;;;;;;93.72;53.40;;;;;;;;;;4976431;28;20512;-79
2022/12/17 19:13:58;;;;;;;84.93;49.80;;;;;;;;;;5000143;28;20492;-79
2022/12/17 19:16:25;;;;;;;82.88;49.25;;;;;;;;;;4991952;28;20449;-79
2022/12/17 19:18:52;;;;;;;87.35;51.20;;;;;;;;;;4991983;28;20418;-87
2022/12/17 19:21:18;;;;;;;84.70;50.80;;;;;;;;;;4999088;28;20435;-88
2022/12/17 19:23:44;;;;;;;70.03;37.30;;;;;;;;;;4959827;28;20183;-87
2022/12/17 19:26:18;;;;;;;70.70;38.63;;;;;;;;;;4976203;28;20205;-87
2022/12/17 19:28:45;;;;;;;81.85;45.22;;;;;;;;;;4960675;28;20430;-87
2022/12/17 19:31:11;;;;;;;88.43;50.22;;;;;;;;;;4975471;28;20429;-87
2022/12/17 19:33:37;;;;;;;79.88;41.05;;;;;;;;;;4976222;28;20501;-88
2022/12/17 19:36:04;;;;;;;104.03;52.35;;;;;;;;;;4975689;28;20418;-81
2022/12/17 19:38:30;;;;;;;98.03;52.10;;;;;;;;;;4975242;28;20430;-81
2022/12/17 19:41:01;;;;;;;100.03;51.97;;;;;;;;;;4976617;28;20402;-81
2022/12/17 19:43:27;;;;;;;93.65;46.90;;;;;;;;;;4976049;28;20429;-81
2022/12/17 19:45:53;;;;;;;107.85;53.55;;;;;;;;;;4959673;28;20422;-81
2022/12/17 19:48:19;;;;;;;116.38;58.50;;;;;;;;;;4974156;28;20517;-81
2022/12/17 19:50:55;;;;;;;115.43;59.40;;;;;;;;;;4979819;28;20488;-81
2022/12/17 19:53:22;;;;;;;116.10;58.10;;;;;;;;;;4994890;28;20435;-87
2022/12/17 19:55:48;;;;;;;101.70;47.03;;;;;;;;;;4963110;28;20440;-87
2022/12/17 19:58:14;;;;;;;106.80;52.70;;;;;;;;;;4958808;28;20449;-87
2022/12/17 20:00:40;;;;;;;117.13;63.15;;;;;;;;;;4959120;28;20414;-88
2022/12/17 20:03:06;;;;;;;115.45;62.60;;;;;;;;;;4943192;28;20415;-87
2022/12/17 20:05:32;;;;;;;100.03;45.40;;;;;;;;;;4958510;28;20197;-88
2022/12/17 20:07:58;;;;;;;114.38;61.58;;;;;;;;;;4960891;28;20444;-87
2022/12/17 20:10:24;;;;;;;113.43;59.28;;;;;;;;;;4952767;28;20430;-81
2022/12/17 20:12:50;;;;;;;115.82;58.97;;;;;;;;;;4954309;28;20436;-81
2022/12/17 20:15:16;;;;;;;109.43;57.67;;;;;;;;;;4961786;28;20463;-81
2022/12/17 20:17:42;;;;;;;107.57;57.42;;;;;;;;;;4958911;28;20434;-81
2022/12/17 20:20:08;;;;;;;108.43;57.75;;;;;;;;;;4977685;28;20476;-81
2022/12/17 20:22:34;;;;;;;121.63;64.97;;;;;;;;;;4961098;28;20435;-81
2022/12/17 20:25:03;;;;;;;131.07;62.90;;;;;;;;;;4959743;28;20430;-79
2022/12/17 20:27:29;;;;;;;125.30;64.28;;;;;;;;;;4976528;28;20437;-79
2022/12/17 20:29:55;;;;;;;139.27;75.25;;;;;;;;;;4962189;28;20445;-79
2022/12/17 20:32:21;;;;;;;135.68;65.80;;;;;;;;;;4942489;28;20417;-79
2022/12/17 20:34:48;;;;;;;144.40;68.50;;;;;;;;;;4954070;28;20488;-79
2022/12/17 20:37:14;;;;;;;146.57;69.93;;;;;;;;;;4958259;28;20410;-80
2022/12/17 20:39:40;;;;;;;140.57;70.32;;;;;;;;;;4958123;28;20418;-79
2022/12/17 20:42:06;;;;;;;135.93;69.55;;;;;;;;;;4958175;28;20415;-79
2022/12/17 20:44:32;;;;;;;134.30;72.80;;;;;;;;;;4959576;28;20418;-80
2022/12/17 20:46:58;;;;;;;147.32;67.93;;;;;;;;;;4958023;28;20414;-79
2022/12/17 20:49:24;;;;;;;144.82;69.43;;;;;;;;;;4957947;28;20411;-79
2022/12/17 20:51:50;;;;;;;146.67;70.70;;;;;;;;;;4961022;28;20435;-80
2022/12/17 20:54:16;;;;;;;163.20;71.05;;;;;;;;;;4957329;28;20461;-80
2022/12/17 20:56:42;;;;;;;151.77;71.10;;;;;;;;;;4989954;28;20414;-79
2022/12/17 20:59:11;;;;;;;152.68;69.88;;;;;;;;;;4973840;28;20468;-80
2022/12/17 21:01:37;;;;;;;139.88;68.90;;;;;;;;;;4974978;28;20424;-80
2022/12/17 21:04:07;;;;;;;130.80;66.57;;;;;;;;;;4960033;28;20475;-80
2022/12/17 21:06:37;;;;;;;134.77;67.20;;;;;;;;;;4992158;28;20417;-80
2022/12/17 21:09:04;;;;;;;127.40;65.80;;;;;;;;;;4976980;28;20409;-80
2022/12/17 21:11:31;;;;;;;135.60;67.30;;;;;;;;;;4977036;28;20463;-79
2022/12/17 21:13:57;;;;;;;135.70;70.57;;;;;;;;;;4973345;28;20476;-79
2022/12/17 21:16:28;;;;;;;129.70;68.03;;;;;;;;;;4977995;28;20442;-79
2022/12/17 21:18:55;;;;;;;123.60;67.03;;;;;;;;;;4990054;28;20426;-79
2022/12/17 21:21:22;;;;;;;121.93;65.38;;;;;;;;;;4941366;28;20410;-80
2022/12/17 21:23:48;;;;;;;117.25;62.13;;;;;;;;;;4989494;28;20414;-79
2022/12/17 21:26:18;;;;;;;102.50;57.45;;;;;;;;;;4954059;28;20439;-79
2022/12/17 21:28:44;;;;;;;103.63;57.60;;;;;;;;;;4976515;28;20431;-79
2022/12/17 21:31:15;;;;;;;102.85;58.45;;;;;;;;;;4958987;28;20438;-79
2022/12/17 21:33:41;;;;;;;99.93;56.28;;;;;;;;;;4962890;28;20514;-79
2022/12/17 21:36:07;;;;;;;98.80;57.80;;;;;;;;;;4989862;28;20454;-79
2022/12/17 21:38:33;;;;;;;106.50;58.80;;;;;;;;;;4994058;28;20436;-79
2022/12/17 21:41:09;;;;;;;109.78;59.33;;;;;;;;;;4959135;28;20504;-79
2022/12/17 21:43:35;;;;;;;110.03;61.08;;;;;;;;;;4969727;28;20459;-79
2022/12/17 21:46:02;;;;;;;107.95;60.38;;;;;;;;;;4993460;28;20424;-79
2022/12/17 21:48:28;;;;;;;114.35;62.80;;;;;;;;;;5002911;28;20505;-79
2022/12/17 21:50:54;;;;;;;126.18;64.38;;;;;;;;;;4979543;28;20403;-79
2022/12/17 21:53:20;;;;;;;119.20;66.30;;;;;;;;;;4961090;28;20426;-79
2022/12/17 21:55:47;;;;;;;113.20;62.40;;;;;;;;;;5013144;28;20439;-79
2022/12/17 21:58:14;;;;;;;111.53;60.38;;;;;;;;;;4986282;28;20405;-79
2022/12/17 22:00:40;;;;;;;106.95;60.38;;;;;;;;;;4976585;28;20400;-79
2022/12/17 22:03:07;;;;;;;105.05;58.50;;;;;;;;;;4976171;28;20519;-79
2022/12/17 22:05:35;;;;;;;105.32;60.13;;;;;;;;;;4994002;28;20499;-79
2022/12/17 22:08:01;;;;;;;110.28;62.03;;;;;;;;;;4976124;28;20436;-79
2022/12/17 22:10:27;;;;;;;138.55;79.78;;;;;;;;;;4969789;28;20427;-79
2022/12/17 22:15:38;;;;;;;121.13;67.97;;;;;;;;;;4997949;28;20554;-79
2022/12/17 22:18:05;;;;;;;119.10;68.30;;;;;;;;;;4995729;28;20411;-79
2022/12/17 22:20:31;;;;;;;110.97;64.78;;;;;;;;;;4995504;28;20395;-79
2022/12/17 22:22:57;;;;;;;111.63;63.10;;;;;;;;;;4999635;28;20491;-82
2022/12/17 22:25:23;;;;;;;104.50;60.83;;;;;;;;;;4976002;28;20529;-82
2022/12/17 22:27:49;;;;;;;105.95;62.42;;;;;;;;;;4981033;28;20409;-82
2022/12/17 22:33:01;;;;;;;111.22;67.30;;;;;;;;;;4993014;28;20428;-83
2022/12/17 22:35:38;;;;;;;117.20;68.57;;;;;;;;;;5015378;28;20444;-83
2022/12/17 22:38:04;;;;;;;97.27;52.00;;;;;;;;;;4995580;28;20176;-83
2022/12/17 22:40:33;;;;;;;89.63;46.67;;;;;;;;;;4997968;28;20182;-79
2022/12/17 22:45:44;;;;;;;86.33;44.90;;;;;;;;;;4995605;28;20408;-79
2022/12/17 22:48:11;;;;;;;80.90;41.53;;;;;;;;;;5012798;28;20181;-87
2022/12/17 22:50:37;;;;;;;90.57;45.03;;;;;;;;;;4980342;28;20174;-87
2022/12/17 22:53:03;;;;;;;90.27;43.67;;;;;;;;;;4980679;28;20289;-87
2022/12/17 22:55:30;;;;;;;88.27;41.27;;;;;;;;;;4980783;28;20277;-81
2022/12/17 22:57:56;;;;;;;87.93;42.70;;;;;;;;;;4980614;28;20178;-81
2022/12/17 23:00:24;;;;;;;86.97;44.63;;;;;;;;;;4993558;28;20236;-81
2022/12/17 23:02:53;;;;;;;78.87;42.53;;;;;;;;;;4997578;28;20217;-80
2022/12/17 23:05:20;;;;;;;95.53;53.78;;;;;;;;;;4967697;28;20450;-79
2022/12/17 23:07:46;;;;;;;104.07;62.17;;;;;;;;;;4984312;28;20435;-79
2022/12/17 23:10:12;;;;;;;83.20;46.73;;;;;;;;;;4963019;28;20190;-79
2022/12/17 23:12:50;;;;;;;78.63;43.27;;;;;;;;;;4980606;28;20189;-83
2022/12/17 23:15:17;;;;;;;78.30;43.27;;;;;;;;;;4989079;28;20245;-81
2022/12/17 23:17:43;;;;;;;71.27;39.30;;;;;;;;;;4993022;28;20185;-80
2022/12/17 23:20:10;;;;;;;72.03;38.20;;;;;;;;;;4997635;28;20185;-81
2022/12/17 23:22:36;;;;;;;76.53;49.53;;;;;;;;;;4977989;28;20431;-87
2022/12/17 23:25:02;;;;;;;66.87;39.10;;;;;;;;;;4982941;28;20193;-81
2022/12/17 23:27:28;;;;;;;65.13;36.73;;;;;;;;;;4991549;28;20235;-81
2022/12/17 23:29:54;;;;;;;72.72;44.15;;;;;;;;;;4980557;28;20470;-87
2022/12/17 23:32:20;;;;;;;76.23;39.57;;;;;;;;;;4984680;28;20182;-87
2022/12/17 23:34:46;;;;;;;73.68;45.15;;;;;;;;;;4959408;28;20429;-87
2022/12/17 23:37:12;;;;;;;67.03;39.00;;;;;;;;;;4982417;28;20193;-87
2022/12/17 23:39:38;;;;;;;69.27;37.90;;;;;;;;;;4982280;28;20187;-88
2022/12/17 23:42:04;;;;;;;66.07;37.23;;;;;;;;;;4986871;28;20178;-87
2022/12/17 23:44:30;;;;;;;78.82;50.08;;;;;;;;;;4994933;28;20447;-87
2022/12/17 23:46:56;;;;;;;74.23;46.40;;;;;;;;;;4962659;28;20442;-81
2022/12/17 23:49:22;;;;;;;72.63;40.17;;;;;;;;;;4976435;28;20182;-81
2022/12/17 23:51:48;;;;;;;68.93;38.97;;;;;;;;;;4977007;28;20196;-81
2022/12/17 23:54:14;;;;;;;65.57;37.37;;;;;;;;;;4959750;28;20199;-81
2022/12/17 23:56:40;;;;;;;61.95;36.83;;;;;;;;;;4959929;28;20553;-81
2022/12/17 23:59:06;;;;;;;74.95;48.67;;;;;;;;;;4990120;28;20412;-81
